sensor_id;sensor_type;location;lat;lon;timestamp;P1;durP1;ratioP1;P2;durP2;ratioP2
23573;SDS011;11965;53.640;10.050;2024-02-21T00:00:00;28.06;;;28.03;;
23573;SDS011;11965;53.640;10.050;2024-02-21T00:02:29;27.62;;;27.37;;
23573;SDS011;11965;53.640;10.050;2024-02-21T00:04:56;27.11;;;26.89;;
23573;SDS011;11965;53.640;10.050;2024-02-21T00:07:23;27.79;;;27.71;;
23573;SDS011;11965;53.640;10.050;2024-02-21T00:09:51;27.30;;;26.85;;
23573;SDS011;11965;53.640;10.050;2024-02-21T00:12:18;26.91;;;26.65;;
23573;SDS011;11965;53.640;10.050;2024-02-21T00:14:44;28.30;;;28.25;;
23573;SDS011;11965;53.640;10.050;2024-02-21T00:17:13;28.15;;;28.04;;
23573;SDS011;11965;53.640;10.050;2024-02-21T00:19:40;27.79;;;27.64;;
23573;SDS011;11965;53.640;10.050;2024-02-21T00:22:07;29.22;;;28.95;;
23573;SDS011;11965;53.640;10.050;2024-02-21T00:24:34;29.41;;;29.18;;
23573;SDS011;11965;53.640;10.050;2024-02-21T00:27:01;29.71;;;29.51;;
23573;SDS011;11965;53.640;10.050;2024-02-21T00:29:28;29.46;;;29.32;;
23573;SDS011;11965;53.640;10.050;2024-02-21T00:31:55;29.61;;;29.38;;
23573;SDS011;11965;53.640;10.050;2024-02-21T00:34:24;29.02;;;28.77;;
23573;SDS011;11965;53.640;10.050;2024-02-21T00:36:50;28.98;;;28.92;;
23573;SDS011;11965;53.640;10.050;2024-02-21T00:39:17;29.34;;;29.28;;
23573;SDS011;11965;53.640;10.050;2024-02-21T00:41:44;29.24;;;29.15;;
23573;SDS011;11965;53.640;10.050;2024-02-21T00:44:11;29.55;;;29.47;;
23573;SDS011;11965;53.640;10.050;2024-02-21T00:46:38;29.50;;;29.37;;
23573;SDS011;11965;53.640;10.050;2024-02-21T00:49:05;29.71;;;29.58;;
23573;SDS011;11965;53.640;10.050;2024-02-21T00:51:34;30.79;;;30.30;;
23573;SDS011;11965;53.640;10.050;2024-02-21T00:54:01;30.94;;;30.50;;
23573;SDS011;11965;53.640;10.050;2024-02-21T00:56:27;30.28;;;30.10;;
23573;SDS011;11965;53.640;10.050;2024-02-21T00:58:55;30.52;;;30.36;;
23573;SDS011;11965;53.640;10.050;2024-02-21T01:01:22;31.11;;;30.85;;
23573;SDS011;11965;53.640;10.050;2024-02-21T01:03:49;30.55;;;30.44;;
23573;SDS011;11965;53.640;10.050;2024-02-21T01:06:16;30.28;;;30.22;;
23573;SDS011;11965;53.640;10.050;2024-02-21T01:08:45;31.28;;;30.73;;
23573;SDS011;11965;53.640;10.050;2024-02-21T01:11:12;30.89;;;30.73;;
23573;SDS011;11965;53.640;10.050;2024-02-21T01:13:39;30.97;;;30.46;;
23573;SDS011;11965;53.640;10.050;2024-02-21T01:16:06;31.00;;;30.69;;
23573;SDS011;11965;53.640;10.050;2024-02-21T01:18:34;30.84;;;30.55;;
23573;SDS011;11965;53.640;10.050;2024-02-21T01:21:01;31.55;;;31.29;;
23573;SDS011;11965;53.640;10.050;2024-02-21T01:23:28;31.28;;;30.85;;
23573;SDS011;11965;53.640;10.050;2024-02-21T01:25:56;30.65;;;30.26;;
23573;SDS011;11965;53.640;10.050;2024-02-21T01:28:22;29.94;;;29.58;;
23573;SDS011;11965;53.640;10.050;2024-02-21T01:30:49;30.45;;;30.23;;
23573;SDS011;11965;53.640;10.050;2024-02-21T01:33:16;30.03;;;30.01;;
23573;SDS011;11965;53.640;10.050;2024-02-21T01:35:42;29.75;;;29.39;;
23573;SDS011;11965;53.640;10.050;2024-02-21T01:38:10;29.15;;;28.93;;
23573;SDS011;11965;53.640;10.050;2024-02-21T01:40:37;30.18;;;29.69;;
23573;SDS011;11965;53.640;10.050;2024-02-21T01:43:14;28.49;;;28.04;;
23573;SDS011;11965;53.640;10.050;2024-02-21T01:45:42;28.53;;;28.36;;
23573;SDS011;11965;53.640;10.050;2024-02-21T01:48:09;29.08;;;28.95;;
23573;SDS011;11965;53.640;10.050;2024-02-21T01:50:36;29.20;;;28.92;;
23573;SDS011;11965;53.640;10.050;2024-02-21T01:53:03;28.38;;;27.98;;
23573;SDS011;11965;53.640;10.050;2024-02-21T01:55:30;28.06;;;27.73;;
23573;SDS011;11965;53.640;10.050;2024-02-21T01:57:57;28.51;;;28.10;;
23573;SDS011;11965;53.640;10.050;2024-02-21T02:00:26;27.63;;;27.21;;
23573;SDS011;11965;53.640;10.050;2024-02-21T02:02:54;26.90;;;26.65;;
23573;SDS011;11965;53.640;10.050;2024-02-21T02:05:22;27.14;;;26.72;;
23573;SDS011;11965;53.640;10.050;2024-02-21T02:07:49;26.43;;;25.82;;
23573;SDS011;11965;53.640;10.050;2024-02-21T02:10:16;27.09;;;26.67;;
23573;SDS011;11965;53.640;10.050;2024-02-21T02:12:43;25.44;;;25.42;;
23573;SDS011;11965;53.640;10.050;2024-02-21T02:15:10;25.80;;;25.38;;
23573;SDS011;11965;53.640;10.050;2024-02-21T02:17:38;25.53;;;25.37;;
23573;SDS011;11965;53.640;10.050;2024-02-21T02:20:06;26.10;;;25.92;;
23573;SDS011;11965;53.640;10.050;2024-02-21T02:22:34;26.68;;;26.35;;
23573;SDS011;11965;53.640;10.050;2024-02-21T02:25:07;27.00;;;26.91;;
23573;SDS011;11965;53.640;10.050;2024-02-21T02:27:40;27.38;;;27.11;;
23573;SDS011;11965;53.640;10.050;2024-02-21T02:30:10;29.05;;;28.76;;
23573;SDS011;11965;53.640;10.050;2024-02-21T02:32:37;29.83;;;29.54;;
23573;SDS011;11965;53.640;10.050;2024-02-21T02:35:04;32.83;;;32.09;;
23573;SDS011;11965;53.640;10.050;2024-02-21T02:37:32;32.54;;;31.79;;
23573;SDS011;11965;53.640;10.050;2024-02-21T02:39:59;34.05;;;33.02;;
23573;SDS011;11965;53.640;10.050;2024-02-21T02:42:27;34.13;;;33.39;;
23573;SDS011;11965;53.640;10.050;2024-02-21T02:44:54;34.57;;;33.73;;
23573;SDS011;11965;53.640;10.050;2024-02-21T02:47:22;34.47;;;33.78;;
23573;SDS011;11965;53.640;10.050;2024-02-21T02:49:49;35.10;;;34.47;;
23573;SDS011;11965;53.640;10.050;2024-02-21T02:52:16;34.83;;;34.30;;
23573;SDS011;11965;53.640;10.050;2024-02-21T02:54:43;34.79;;;34.32;;
23573;SDS011;11965;53.640;10.050;2024-02-21T02:57:11;36.04;;;35.07;;
23573;SDS011;11965;53.640;10.050;2024-02-21T02:59:39;35.06;;;34.48;;
23573;SDS011;11965;53.640;10.050;2024-02-21T03:02:06;35.62;;;35.38;;
23573;SDS011;11965;53.640;10.050;2024-02-21T03:04:33;35.66;;;35.18;;
23573;SDS011;11965;53.640;10.050;2024-02-21T03:07:00;37.85;;;37.27;;
23573;SDS011;11965;53.640;10.050;2024-02-21T03:09:27;38.43;;;37.52;;
23573;SDS011;11965;53.640;10.050;2024-02-21T03:11:54;37.05;;;36.35;;
23573;SDS011;11965;53.640;10.050;2024-02-21T03:14:27;37.45;;;36.84;;
23573;SDS011;11965;53.640;10.050;2024-02-21T03:16:56;38.40;;;37.80;;
23573;SDS011;11965;53.640;10.050;2024-02-21T03:19:23;37.33;;;36.70;;
23573;SDS011;11965;53.640;10.050;2024-02-21T03:21:50;37.79;;;37.03;;
23573;SDS011;11965;53.640;10.050;2024-02-21T03:24:18;37.51;;;37.10;;
23573;SDS011;11965;53.640;10.050;2024-02-21T03:26:45;36.48;;;35.85;;
23573;SDS011;11965;53.640;10.050;2024-02-21T03:29:14;37.83;;;37.25;;
23573;SDS011;11965;53.640;10.050;2024-02-21T03:31:41;36.74;;;36.34;;
23573;SDS011;11965;53.640;10.050;2024-02-21T03:34:11;36.05;;;35.80;;
23573;SDS011;11965;53.640;10.050;2024-02-21T03:36:38;35.90;;;35.63;;
23573;SDS011;11965;53.640;10.050;2024-02-21T03:39:05;35.59;;;35.12;;
23573;SDS011;11965;53.640;10.050;2024-02-21T03:41:33;35.73;;;35.49;;
23573;SDS011;11965;53.640;10.050;2024-02-21T03:44:00;34.16;;;33.83;;
23573;SDS011;11965;53.640;10.050;2024-02-21T03:46:27;33.97;;;33.79;;
23573;SDS011;11965;53.640;10.050;2024-02-21T03:48:54;33.50;;;33.15;;
23573;SDS011;11965;53.640;10.050;2024-02-21T03:51:22;33.85;;;33.49;;
23573;SDS011;11965;53.640;10.050;2024-02-21T03:53:49;33.38;;;32.75;;
23573;SDS011;11965;53.640;10.050;2024-02-21T03:56:16;31.92;;;31.61;;
23573;SDS011;11965;53.640;10.050;2024-02-21T03:58:43;31.14;;;30.83;;
23573;SDS011;11965;53.640;10.050;2024-02-21T04:01:10;31.39;;;31.05;;
23573;SDS011;11965;53.640;10.050;2024-02-21T04:03:37;31.45;;;31.23;;
23573;SDS011;11965;53.640;10.050;2024-02-21T04:06:04;30.70;;;30.66;;
23573;SDS011;11965;53.640;10.050;2024-02-21T04:08:33;30.36;;;30.24;;
23573;SDS011;11965;53.640;10.050;2024-02-21T04:11:00;30.12;;;30.01;;
23573;SDS011;11965;53.640;10.050;2024-02-21T04:13:27;29.73;;;29.61;;
23573;SDS011;11965;53.640;10.050;2024-02-21T04:15:54;29.18;;;28.94;;
23573;SDS011;11965;53.640;10.050;2024-02-21T04:18:22;28.84;;;28.79;;
23573;SDS011;11965;53.640;10.050;2024-02-21T04:20:50;28.95;;;28.72;;
23573;SDS011;11965;53.640;10.050;2024-02-21T04:23:18;28.15;;;28.11;;
23573;SDS011;11965;53.640;10.050;2024-02-21T04:25:46;27.97;;;27.76;;
23573;SDS011;11965;53.640;10.050;2024-02-21T04:28:13;28.45;;;28.21;;
23573;SDS011;11965;53.640;10.050;2024-02-21T04:30:40;27.43;;;27.24;;
23573;SDS011;11965;53.640;10.050;2024-02-21T04:33:07;27.13;;;27.12;;
23573;SDS011;11965;53.640;10.050;2024-02-21T04:35:35;27.61;;;27.60;;
23573;SDS011;11965;53.640;10.050;2024-02-21T04:38:02;27.38;;;27.33;;
23573;SDS011;11965;53.640;10.050;2024-02-21T04:40:29;28.18;;;28.03;;
23573;SDS011;11965;53.640;10.050;2024-02-21T04:42:58;27.51;;;27.40;;
23573;SDS011;11965;53.640;10.050;2024-02-21T04:45:25;27.67;;;27.62;;
23573;SDS011;11965;53.640;10.050;2024-02-21T04:47:52;27.91;;;27.88;;
23573;SDS011;11965;53.640;10.050;2024-02-21T04:50:19;27.17;;;27.10;;
23573;SDS011;11965;53.640;10.050;2024-02-21T04:52:46;26.90;;;26.52;;
23573;SDS011;11965;53.640;10.050;2024-02-21T04:55:12;25.59;;;25.45;;
23573;SDS011;11965;53.640;10.050;2024-02-21T04:57:39;24.88;;;24.83;;
23573;SDS011;11965;53.640;10.050;2024-02-21T05:00:08;25.03;;;24.84;;
23573;SDS011;11965;53.640;10.050;2024-02-21T05:02:36;23.80;;;23.73;;
23573;SDS011;11965;53.640;10.050;2024-02-21T05:05:03;22.88;;;22.73;;
23573;SDS011;11965;53.640;10.050;2024-02-21T05:07:30;22.59;;;22.45;;
23573;SDS011;11965;53.640;10.050;2024-02-21T05:10:01;21.65;;;21.64;;
23573;SDS011;11965;53.640;10.050;2024-02-21T05:12:28;20.61;;;20.58;;
23573;SDS011;11965;53.640;10.050;2024-02-21T05:14:56;19.92;;;19.91;;
23573;SDS011;11965;53.640;10.050;2024-02-21T05:17:24;19.39;;;19.33;;
23573;SDS011;11965;53.640;10.050;2024-02-21T05:19:51;18.96;;;18.71;;
23573;SDS011;11965;53.640;10.050;2024-02-21T05:22:18;18.32;;;18.30;;
23573;SDS011;11965;53.640;10.050;2024-02-21T05:24:45;18.55;;;18.17;;
23573;SDS011;11965;53.640;10.050;2024-02-21T05:27:12;18.12;;;17.76;;
23573;SDS011;11965;53.640;10.050;2024-02-21T05:29:39;17.17;;;17.11;;
23573;SDS011;11965;53.640;10.050;2024-02-21T05:32:06;16.62;;;16.62;;
23573;SDS011;11965;53.640;10.050;2024-02-21T05:34:34;16.94;;;16.77;;
23573;SDS011;11965;53.640;10.050;2024-02-21T05:37:01;16.85;;;16.82;;
23573;SDS011;11965;53.640;10.050;2024-02-21T05:39:28;16.38;;;16.38;;
23573;SDS011;11965;53.640;10.050;2024-02-21T05:41:55;16.09;;;16.08;;
23573;SDS011;11965;53.640;10.050;2024-02-21T05:44:22;16.07;;;15.86;;
23573;SDS011;11965;53.640;10.050;2024-02-21T05:46:49;15.71;;;15.60;;
23573;SDS011;11965;53.640;10.050;2024-02-21T05:49:16;14.49;;;14.47;;
23573;SDS011;11965;53.640;10.050;2024-02-21T05:51:45;14.81;;;14.79;;
23573;SDS011;11965;53.640;10.050;2024-02-21T05:54:12;14.51;;;14.51;;
23573;SDS011;11965;53.640;10.050;2024-02-21T05:56:39;13.85;;;13.85;;
23573;SDS011;11965;53.640;10.050;2024-02-21T05:59:10;13.59;;;13.59;;
23573;SDS011;11965;53.640;10.050;2024-02-21T06:01:37;12.90;;;12.87;;
23573;SDS011;11965;53.640;10.050;2024-02-21T06:04:04;12.49;;;12.48;;
23573;SDS011;11965;53.640;10.050;2024-02-21T06:06:31;12.39;;;12.39;;
23573;SDS011;11965;53.640;10.050;2024-02-21T06:09:00;11.80;;;11.80;;
23573;SDS011;11965;53.640;10.050;2024-02-21T06:11:28;11.32;;;11.27;;
23573;SDS011;11965;53.640;10.050;2024-02-21T06:13:55;11.24;;;11.24;;
23573;SDS011;11965;53.640;10.050;2024-02-21T06:16:22;10.56;;;10.53;;
23573;SDS011;11965;53.640;10.050;2024-02-21T06:18:49;10.33;;;10.30;;
23573;SDS011;11965;53.640;10.050;2024-02-21T06:21:16;10.06;;;10.03;;
23573;SDS011;11965;53.640;10.050;2024-02-21T06:23:43;9.99;;;9.99;;
23573;SDS011;11965;53.640;10.050;2024-02-21T06:26:11;9.86;;;9.86;;
23573;SDS011;11965;53.640;10.050;2024-02-21T06:28:38;8.34;;;8.34;;
23573;SDS011;11965;53.640;10.050;2024-02-21T06:31:05;7.36;;;7.36;;
23573;SDS011;11965;53.640;10.050;2024-02-21T06:33:32;6.61;;;6.61;;
23573;SDS011;11965;53.640;10.050;2024-02-21T06:35:59;5.95;;;5.95;;
23573;SDS011;11965;53.640;10.050;2024-02-21T06:38:26;5.96;;;5.96;;
23573;SDS011;11965;53.640;10.050;2024-02-21T06:40:53;5.60;;;5.60;;
23573;SDS011;11965;53.640;10.050;2024-02-21T06:43:21;5.29;;;5.29;;
23573;SDS011;11965;53.640;10.050;2024-02-21T06:45:48;4.73;;;4.73;;
23573;SDS011;11965;53.640;10.050;2024-02-21T06:48:17;4.81;;;4.81;;
23573;SDS011;11965;53.640;10.050;2024-02-21T06:50:44;4.29;;;4.29;;
23573;SDS011;11965;53.640;10.050;2024-02-21T06:53:12;3.85;;;3.85;;
23573;SDS011;11965;53.640;10.050;2024-02-21T06:55:39;3.75;;;3.75;;
23573;SDS011;11965;53.640;10.050;2024-02-21T06:58:05;3.98;;;3.98;;
23573;SDS011;11965;53.640;10.050;2024-02-21T07:00:38;3.57;;;3.57;;
23573;SDS011;11965;53.640;10.050;2024-02-21T07:03:05;3.51;;;3.51;;
23573;SDS011;11965;53.640;10.050;2024-02-21T07:05:32;3.81;;;3.81;;
23573;SDS011;11965;53.640;10.050;2024-02-21T07:07:59;3.89;;;3.89;;
23573;SDS011;11965;53.640;10.050;2024-02-21T07:10:26;3.72;;;3.72;;
23573;SDS011;11965;53.640;10.050;2024-02-21T07:12:54;3.71;;;3.71;;
23573;SDS011;11965;53.640;10.050;2024-02-21T07:15:21;3.70;;;3.70;;
23573;SDS011;11965;53.640;10.050;2024-02-21T07:17:49;4.18;;;4.18;;
23573;SDS011;11965;53.640;10.050;2024-02-21T07:20:16;4.29;;;4.29;;
23573;SDS011;11965;53.640;10.050;2024-02-21T07:22:43;4.34;;;4.34;;
23573;SDS011;11965;53.640;10.050;2024-02-21T07:25:10;4.11;;;4.11;;
23573;SDS011;11965;53.640;10.050;2024-02-21T07:27:37;4.22;;;4.22;;
23573;SDS011;11965;53.640;10.050;2024-02-21T07:30:04;4.68;;;4.68;;
23573;SDS011;11965;53.640;10.050;2024-02-21T07:32:32;4.60;;;4.60;;
23573;SDS011;11965;53.640;10.050;2024-02-21T07:35:00;3.95;;;3.95;;
23573;SDS011;11965;53.640;10.050;2024-02-21T07:37:27;3.91;;;3.91;;
23573;SDS011;11965;53.640;10.050;2024-02-21T07:39:54;3.72;;;3.72;;
23573;SDS011;11965;53.640;10.050;2024-02-21T07:42:21;3.69;;;3.69;;
23573;SDS011;11965;53.640;10.050;2024-02-21T07:44:48;4.14;;;4.13;;
23573;SDS011;11965;53.640;10.050;2024-02-21T07:47:15;4.20;;;4.07;;
23573;SDS011;11965;53.640;10.050;2024-02-21T07:49:43;4.30;;;4.30;;
23573;SDS011;11965;53.640;10.050;2024-02-21T07:52:13;4.65;;;4.64;;
23573;SDS011;11965;53.640;10.050;2024-02-21T07:54:40;4.62;;;4.60;;
23573;SDS011;11965;53.640;10.050;2024-02-21T07:57:07;4.86;;;4.86;;
23573;SDS011;11965;53.640;10.050;2024-02-21T07:59:34;5.23;;;5.23;;
23573;SDS011;11965;53.640;10.050;2024-02-21T08:02:01;5.56;;;5.56;;
23573;SDS011;11965;53.640;10.050;2024-02-21T08:04:32;5.55;;;5.55;;
23573;SDS011;11965;53.640;10.050;2024-02-21T08:06:59;5.72;;;5.57;;
23573;SDS011;11965;53.640;10.050;2024-02-21T08:09:30;5.67;;;5.51;;
23573;SDS011;11965;53.640;10.050;2024-02-21T08:11:57;6.61;;;6.34;;
23573;SDS011;11965;53.640;10.050;2024-02-21T08:14:24;6.10;;;5.66;;
23573;SDS011;11965;53.640;10.050;2024-02-21T08:16:52;6.29;;;5.82;;
23573;SDS011;11965;53.640;10.050;2024-02-21T08:19:20;6.40;;;5.84;;
23573;SDS011;11965;53.640;10.050;2024-02-21T08:21:47;6.61;;;6.03;;
23573;SDS011;11965;53.640;10.050;2024-02-21T08:24:14;6.31;;;5.73;;
23573;SDS011;11965;53.640;10.050;2024-02-21T08:26:43;6.92;;;6.21;;
23573;SDS011;11965;53.640;10.050;2024-02-21T08:29:11;7.36;;;6.53;;
23573;SDS011;11965;53.640;10.050;2024-02-21T08:31:39;6.50;;;5.93;;
23573;SDS011;11965;53.640;10.050;2024-02-21T08:34:06;6.67;;;6.00;;
23573;SDS011;11965;53.640;10.050;2024-02-21T08:36:33;7.86;;;6.83;;
23573;SDS011;11965;53.640;10.050;2024-02-21T08:39:01;7.68;;;6.55;;
23573;SDS011;11965;53.640;10.050;2024-02-21T08:41:30;7.42;;;6.37;;
23573;SDS011;11965;53.640;10.050;2024-02-21T08:43:59;6.97;;;6.10;;
23573;SDS011;11965;53.640;10.050;2024-02-21T08:46:26;6.98;;;6.13;;
23573;SDS011;11965;53.640;10.050;2024-02-21T08:48:54;6.53;;;5.79;;
23573;SDS011;11965;53.640;10.050;2024-02-21T08:51:21;6.62;;;5.77;;
23573;SDS011;11965;53.640;10.050;2024-02-21T08:53:48;7.00;;;5.89;;
23573;SDS011;11965;53.640;10.050;2024-02-21T08:56:15;6.72;;;5.70;;
23573;SDS011;11965;53.640;10.050;2024-02-21T08:58:43;7.98;;;6.65;;
23573;SDS011;11965;53.640;10.050;2024-02-21T09:01:11;7.76;;;6.26;;
23573;SDS011;11965;53.640;10.050;2024-02-21T09:03:38;7.20;;;5.85;;
23573;SDS011;11965;53.640;10.050;2024-02-21T09:06:06;7.97;;;6.40;;
23573;SDS011;11965;53.640;10.050;2024-02-21T09:08:34;8.04;;;6.34;;
23573;SDS011;11965;53.640;10.050;2024-02-21T09:11:01;8.82;;;7.12;;
23573;SDS011;11965;53.640;10.050;2024-02-21T09:13:29;7.69;;;6.48;;
23573;SDS011;11965;53.640;10.050;2024-02-21T09:15:56;7.95;;;6.72;;
23573;SDS011;11965;53.640;10.050;2024-02-21T09:18:24;7.70;;;6.45;;
23573;SDS011;11965;53.640;10.050;2024-02-21T09:20:51;7.78;;;6.48;;
23573;SDS011;11965;53.640;10.050;2024-02-21T09:23:18;7.97;;;6.56;;
23573;SDS011;11965;53.640;10.050;2024-02-21T09:25:45;7.59;;;6.37;;
23573;SDS011;11965;53.640;10.050;2024-02-21T09:28:12;7.34;;;6.32;;
23573;SDS011;11965;53.640;10.050;2024-02-21T09:30:39;7.34;;;6.28;;
23573;SDS011;11965;53.640;10.050;2024-02-21T09:33:06;6.51;;;5.72;;
23573;SDS011;11965;53.640;10.050;2024-02-21T09:35:34;6.89;;;6.09;;
23573;SDS011;11965;53.640;10.050;2024-02-21T09:38:02;6.67;;;5.97;;
23573;SDS011;11965;53.640;10.050;2024-02-21T09:40:29;7.86;;;6.77;;
23573;SDS011;11965;53.640;10.050;2024-02-21T09:42:59;7.06;;;6.16;;
23573;SDS011;11965;53.640;10.050;2024-02-21T09:45:32;6.32;;;5.67;;
23573;SDS011;11965;53.640;10.050;2024-02-21T09:48:07;6.65;;;5.93;;
23573;SDS011;11965;53.640;10.050;2024-02-21T09:50:50;5.69;;;5.17;;
23573;SDS011;11965;53.640;10.050;2024-02-21T09:53:19;5.68;;;5.13;;
23573;SDS011;11965;53.640;10.050;2024-02-21T09:55:49;5.75;;;5.21;;
23573;SDS011;11965;53.640;10.050;2024-02-21T09:58:17;5.98;;;5.28;;
23573;SDS011;11965;53.640;10.050;2024-02-21T10:00:44;6.16;;;5.39;;
23573;SDS011;11965;53.640;10.050;2024-02-21T10:03:11;5.66;;;5.12;;
23573;SDS011;11965;53.640;10.050;2024-02-21T10:05:44;5.35;;;4.75;;
23573;SDS011;11965;53.640;10.050;2024-02-21T10:08:16;5.60;;;5.02;;
23573;SDS011;11965;53.640;10.050;2024-02-21T10:10:44;5.21;;;4.71;;
23573;SDS011;11965;53.640;10.050;2024-02-21T10:13:23;4.62;;;4.30;;
23573;SDS011;11965;53.640;10.050;2024-02-21T10:16:00;4.40;;;4.14;;
23573;SDS011;11965;53.640;10.050;2024-02-21T10:18:28;4.62;;;4.35;;
23573;SDS011;11965;53.640;10.050;2024-02-21T10:21:02;4.32;;;4.13;;
23573;SDS011;11965;53.640;10.050;2024-02-21T10:23:41;4.11;;;3.98;;
23573;SDS011;11965;53.640;10.050;2024-02-21T10:26:09;4.21;;;4.10;;
23573;SDS011;11965;53.640;10.050;2024-02-21T10:28:36;4.26;;;4.23;;
23573;SDS011;11965;53.640;10.050;2024-02-21T10:31:07;4.00;;;3.99;;
23573;SDS011;11965;53.640;10.050;2024-02-21T10:33:35;4.82;;;4.82;;
23573;SDS011;11965;53.640;10.050;2024-02-21T10:36:06;4.56;;;4.56;;
23573;SDS011;11965;53.640;10.050;2024-02-21T10:38:35;5.13;;;5.13;;
23573;SDS011;11965;53.640;10.050;2024-02-21T10:41:04;5.27;;;5.27;;
23573;SDS011;11965;53.640;10.050;2024-02-21T10:43:35;6.30;;;6.30;;
23573;SDS011;11965;53.640;10.050;2024-02-21T10:46:06;7.00;;;6.99;;
23573;SDS011;11965;53.640;10.050;2024-02-21T10:48:38;7.95;;;7.93;;
23573;SDS011;11965;53.640;10.050;2024-02-21T10:51:12;9.09;;;9.09;;
23573;SDS011;11965;53.640;10.050;2024-02-21T10:53:44;9.43;;;9.41;;
23573;SDS011;11965;53.640;10.050;2024-02-21T10:56:19;11.24;;;11.24;;
23573;SDS011;11965;53.640;10.050;2024-02-21T10:58:50;12.90;;;12.90;;
23573;SDS011;11965;53.640;10.050;2024-02-21T11:01:17;15.56;;;15.45;;
23573;SDS011;11965;53.640;10.050;2024-02-21T11:03:45;17.65;;;17.10;;
23573;SDS011;11965;53.640;10.050;2024-02-21T11:06:16;19.21;;;19.10;;
23573;SDS011;11965;53.640;10.050;2024-02-21T11:08:46;21.96;;;21.64;;
23573;SDS011;11965;53.640;10.050;2024-02-21T11:11:14;22.66;;;22.17;;
23573;SDS011;11965;53.640;10.050;2024-02-21T11:13:45;23.47;;;23.04;;
23573;SDS011;11965;53.640;10.050;2024-02-21T11:16:21;25.35;;;24.25;;
23573;SDS011;11965;53.640;10.050;2024-02-21T11:18:49;25.88;;;25.66;;
23573;SDS011;11965;53.640;10.050;2024-02-21T11:21:16;27.12;;;26.19;;
23573;SDS011;11965;53.640;10.050;2024-02-21T11:23:43;26.95;;;26.24;;
23573;SDS011;11965;53.640;10.050;2024-02-21T11:26:10;26.25;;;25.49;;
23573;SDS011;11965;53.640;10.050;2024-02-21T11:28:56;27.11;;;26.31;;
23573;SDS011;11965;53.640;10.050;2024-02-21T11:31:25;27.55;;;26.77;;
23573;SDS011;11965;53.640;10.050;2024-02-21T11:33:53;27.18;;;26.41;;
23573;SDS011;11965;53.640;10.050;2024-02-21T11:36:24;26.05;;;25.53;;
23573;SDS011;11965;53.640;10.050;2024-02-21T11:38:52;25.37;;;24.80;;
23573;SDS011;11965;53.640;10.050;2024-02-21T11:41:19;23.79;;;23.52;;
23573;SDS011;11965;53.640;10.050;2024-02-21T11:43:48;24.40;;;23.59;;
23573;SDS011;11965;53.640;10.050;2024-02-21T11:46:17;23.19;;;22.80;;
23573;SDS011;11965;53.640;10.050;2024-02-21T11:48:45;22.69;;;22.50;;
23573;SDS011;11965;53.640;10.050;2024-02-21T11:51:21;22.20;;;21.91;;
23573;SDS011;11965;53.640;10.050;2024-02-21T11:53:52;22.14;;;21.75;;
23573;SDS011;11965;53.640;10.050;2024-02-21T11:56:19;20.81;;;20.39;;
23573;SDS011;11965;53.640;10.050;2024-02-21T11:58:48;20.48;;;20.20;;
23573;SDS011;11965;53.640;10.050;2024-02-21T12:01:16;20.49;;;20.01;;
23573;SDS011;11965;53.640;10.050;2024-02-21T12:03:43;18.31;;;18.10;;
23573;SDS011;11965;53.640;10.050;2024-02-21T12:06:15;18.82;;;18.65;;
23573;SDS011;11965;53.640;10.050;2024-02-21T12:08:46;18.69;;;18.37;;
23573;SDS011;11965;53.640;10.050;2024-02-21T12:11:20;17.67;;;17.58;;
23573;SDS011;11965;53.640;10.050;2024-02-21T12:13:58;16.34;;;16.28;;
23573;SDS011;11965;53.640;10.050;2024-02-21T12:16:28;16.85;;;16.67;;
23573;SDS011;11965;53.640;10.050;2024-02-21T12:18:56;16.95;;;16.73;;
23573;SDS011;11965;53.640;10.050;2024-02-21T12:21:26;16.79;;;16.44;;
23573;SDS011;11965;53.640;10.050;2024-02-21T12:23:54;16.76;;;16.50;;
23573;SDS011;11965;53.640;10.050;2024-02-21T12:26:21;16.61;;;16.46;;
23573;SDS011;11965;53.640;10.050;2024-02-21T12:28:48;17.73;;;17.07;;
23573;SDS011;11965;53.640;10.050;2024-02-21T12:31:15;17.36;;;16.98;;
23573;SDS011;11965;53.640;10.050;2024-02-21T12:33:44;17.31;;;16.91;;
23573;SDS011;11965;53.640;10.050;2024-02-21T12:36:11;17.05;;;16.76;;
23573;SDS011;11965;53.640;10.050;2024-02-21T12:38:38;17.02;;;16.75;;
23573;SDS011;11965;53.640;10.050;2024-02-21T12:41:04;17.42;;;17.06;;
23573;SDS011;11965;53.640;10.050;2024-02-21T12:43:32;16.72;;;16.63;;
23573;SDS011;11965;53.640;10.050;2024-02-21T12:46:00;16.83;;;16.65;;
23573;SDS011;11965;53.640;10.050;2024-02-21T12:48:27;16.94;;;16.81;;
23573;SDS011;11965;53.640;10.050;2024-02-21T12:50:55;16.86;;;16.81;;
23573;SDS011;11965;53.640;10.050;2024-02-21T12:53:22;16.26;;;16.26;;
23573;SDS011;11965;53.640;10.050;2024-02-21T12:55:49;17.43;;;17.23;;
23573;SDS011;11965;53.640;10.050;2024-02-21T12:58:16;17.86;;;17.86;;
23573;SDS011;11965;53.640;10.050;2024-02-21T13:00:43;18.28;;;18.01;;
23573;SDS011;11965;53.640;10.050;2024-02-21T13:03:11;17.66;;;17.56;;
23573;SDS011;11965;53.640;10.050;2024-02-21T13:05:38;17.63;;;17.50;;
23573;SDS011;11965;53.640;10.050;2024-02-21T13:08:07;16.70;;;16.70;;
23573;SDS011;11965;53.640;10.050;2024-02-21T13:10:35;20.28;;;20.27;;
23573;SDS011;11965;53.640;10.050;2024-02-21T13:13:02;21.27;;;21.24;;
23573;SDS011;11965;53.640;10.050;2024-02-21T13:15:29;20.93;;;20.49;;
23573;SDS011;11965;53.640;10.050;2024-02-21T13:17:56;21.39;;;21.30;;
23573;SDS011;11965;53.640;10.050;2024-02-21T13:20:23;22.29;;;22.19;;
23573;SDS011;11965;53.640;10.050;2024-02-21T13:22:51;19.32;;;19.26;;
23573;SDS011;11965;53.640;10.050;2024-02-21T13:25:20;18.66;;;18.64;;
23573;SDS011;11965;53.640;10.050;2024-02-21T13:27:47;17.92;;;17.92;;
23573;SDS011;11965;53.640;10.050;2024-02-21T13:30:14;20.47;;;20.47;;
23573;SDS011;11965;53.640;10.050;2024-02-21T13:32:43;21.02;;;20.96;;
23573;SDS011;11965;53.640;10.050;2024-02-21T13:35:12;18.60;;;18.60;;
23573;SDS011;11965;53.640;10.050;2024-02-21T13:37:39;18.93;;;18.70;;
23573;SDS011;11965;53.640;10.050;2024-02-21T13:40:07;19.19;;;19.15;;
23573;SDS011;11965;53.640;10.050;2024-02-21T13:42:37;18.50;;;18.38;;
23573;SDS011;11965;53.640;10.050;2024-02-21T13:45:04;19.04;;;19.04;;
23573;SDS011;11965;53.640;10.050;2024-02-21T13:47:32;18.95;;;18.95;;
23573;SDS011;11965;53.640;10.050;2024-02-21T13:49:59;18.24;;;18.20;;
23573;SDS011;11965;53.640;10.050;2024-02-21T13:52:26;17.61;;;17.60;;
23573;SDS011;11965;53.640;10.050;2024-02-21T13:54:53;18.26;;;18.26;;
23573;SDS011;11965;53.640;10.050;2024-02-21T13:57:20;17.75;;;17.75;;
23573;SDS011;11965;53.640;10.050;2024-02-21T13:59:48;17.98;;;17.98;;
23573;SDS011;11965;53.640;10.050;2024-02-21T14:02:19;17.93;;;17.89;;
23573;SDS011;11965;53.640;10.050;2024-02-21T14:04:46;17.89;;;17.88;;
23573;SDS011;11965;53.640;10.050;2024-02-21T14:07:13;17.91;;;17.78;;
23573;SDS011;11965;53.640;10.050;2024-02-21T14:09:40;18.21;;;18.11;;
23573;SDS011;11965;53.640;10.050;2024-02-21T14:12:07;17.16;;;17.16;;
23573;SDS011;11965;53.640;10.050;2024-02-21T14:14:34;17.28;;;17.25;;
23573;SDS011;11965;53.640;10.050;2024-02-21T14:17:03;16.55;;;16.55;;
23573;SDS011;11965;53.640;10.050;2024-02-21T14:19:30;16.77;;;16.77;;